Terminal Aerodrome Forecast
Issued by NWS

Home | Current Version | Previous Version | Text Only | Print | Product List | Glossary Off
Versions: 1 2 3 4 5 6 7 8 9 10 11 12 13 14 15 16 17 18

000
FTUS43 KGRB 240520
TAFCWA
TAF
KCWA 240520Z 2406/2506 11011G16KT P6SM BKN200
     FM241800 15016G24KT P6SM BKN150
     FM250200 14012KT P6SM SCT100 BKN140 WS012/17040KT
      AMD LTD TO CLD VIS AND WIND TIL 241100=

USA.gov is the U.S. government's official web portal to all federal, state and local government web resources and services.